Terminal Aerodrome Forecast
Issued by NWS Cleveland, OH

Home | Current Version | Previous Version | Text Only | Print | Product List | Glossary Off
Versions: 1 2 3 4 5 6 7 8 9 10 11 12 13 14 15 16 17 18 19 20 21 22

000
FTUS41 KCLE 221423 AAA
TAFMFD
TAF AMD
KMFD 221423Z 2214/2312 20007KT 6SM BR OVC035
      TEMPO 2214/2216 3SM BR OVC015
     FM221600 20010KT P6SM BKN018
     FM222000 20007KT P6SM BKN025
     FM230300 20010KT P6SM OVC015
     FM230600 20010KT 4SM BR OVC008=

USA.gov is the U.S. government's official web portal to all federal, state and local government web resources and services.